Time;durP1;ratioP1;P1;durP2;ratioP2;P2;SDS_P1;SDS_P2;PMS_P1;PMS_P2;Temp;Humidity;BMP_temperature;BMP_pressure;BME280_temperature;BME280_humidity;BME280_pressure;Samples;Min_cycle;Max_cycle;Signal;HPM_P1;HPM_P2
2023/03/28 00:00:22;;;;;;;13.23;2.13;;;;;;;-144.73;95.34;54456.97;4974989;28;20046;-72
2023/03/28 00:02:48;;;;;;;23.17;3.07;;;;;;;-144.73;95.11;54473.38;4992249;28;20157;-72
2023/03/28 00:05:16;;;;;;;10.70;2.03;;;;;;;-144.73;94.48;54518.53;4974903;28;20034;-71
2023/03/28 00:07:42;;;;;;;12.60;1.93;;;;;;;-144.73;93.91;54461.06;4976240;28;20041;-71
2023/03/28 00:10:08;;;;;;;10.80;2.00;;;;;;;-144.73;94.26;54469.28;4974909;28;20018;-71
2023/03/28 00:12:34;;;;;;;14.20;1.40;;;;;;;-144.73;94.04;54539.06;4993332;28;20026;-71
2023/03/28 00:15:03;;;;;;;18.60;1.93;;;;;;;-144.73;93.54;54489.81;4995359;28;20036;-72
2023/03/28 00:17:29;;;;;;;15.37;2.57;;;;;;;-144.73;93.22;54493.91;4979080;28;20073;-72
2023/03/28 00:19:55;;;;;;;12.30;2.13;;;;;;;-144.73;93.24;54461.06;4978191;28;20031;-72
2023/03/28 00:22:21;;;;;;;28.97;2.37;;;;;;;-144.73;93.48;54452.84;4979048;28;20062;-72
2023/03/28 00:24:47;;;;;;;17.43;1.83;;;;;;;-144.73;93.52;54485.69;4996574;28;20026;-71
2023/03/28 00:27:14;;;;;;;13.23;1.73;;;;;;;-144.73;93.21;54456.97;4978499;28;20093;-72
2023/03/28 00:29:40;;;;;;;10.83;1.50;;;;;;;-144.73;92.89;54493.91;4977851;28;20041;-72
2023/03/28 00:32:05;;;;;;;11.67;1.67;;;;;;;-144.73;92.63;54489.81;4995921;28;20038;-72
2023/03/28 00:34:31;;;;;;;11.10;1.63;;;;;;;-144.73;92.55;54469.28;4990186;28;20389;-71
2023/03/28 00:36:57;;;;;;;13.63;2.07;;;;;;;-144.73;92.15;54502.13;4956950;28;20038;-72
2023/03/28 00:39:22;;;;;;;16.43;2.67;;;;;;;-144.73;92.11;54477.47;4974975;28;20070;-71
2023/03/28 00:41:48;;;;;;;12.30;1.57;;;;;;;-144.73;92.66;54485.69;4968703;28;20038;-71
2023/03/28 00:44:47;;;;;;;15.13;2.20;;;;;;;-144.73;92.88;54506.22;4994590;28;20030;-69
2023/03/28 00:47:50;;;;;;;16.90;1.80;;;;;;;-144.73;93.45;54514.44;4969579;28;20062;-70
2023/03/28 00:50:23;;;;;;;14.07;1.80;;;;;;;-144.73;93.42;54493.91;4977194;28;20433;-72
2023/03/28 00:52:55;;;;;;;20.30;2.23;;;;;;;-144.73;93.06;54448.75;4993607;28;20444;-72
2023/03/28 00:55:35;;;;;;;10.73;2.00;;;;;;;-144.73;93.53;54489.81;4993785;28;20034;-73
2023/03/28 00:58:06;;;;;;;11.77;1.83;;;;;;;-144.73;93.69;54469.28;4977548;28;20030;-72
2023/03/28 01:00:33;;;;;;;16.50;1.50;;;;;;;-144.73;93.45;54485.69;4976384;28;20038;-72
2023/03/28 01:03:01;;;;;;;9.73;1.70;;;;;;;-144.73;92.98;54463.13;4978529;28;20041;-72
2023/03/28 01:05:31;;;;;;;14.40;2.23;;;;;;;-144.73;93.09;54481.59;4994303;28;20057;-72
2023/03/28 01:08:05;;;;;;;25.13;2.10;;;;;;;-144.73;92.94;54481.59;4995995;28;20085;-72
2023/03/28 01:10:32;;;;;;;17.87;2.40;;;;;;;-144.73;92.42;54485.69;4995181;28;20038;-69
2023/03/28 01:12:59;;;;;;;9.30;1.50;;;;;;;-144.73;92.77;54452.84;4995064;28;20444;-69
2023/03/28 01:15:25;;;;;;;10.97;1.60;;;;;;;-144.73;92.70;54530.84;4977846;28;20057;-70
2023/03/28 01:17:51;;;;;;;8.10;1.40;;;;;;;-144.73;92.17;54473.38;4979518;28;20038;-70
2023/03/28 01:20:31;;;;;;;10.60;2.03;;;;;;;-144.73;91.88;54473.38;4977875;28;20026;-70
2023/03/28 01:23:19;;;;;;;5.77;1.13;;;;;;;-144.73;92.04;54473.38;4979185;28;20033;-70
2023/03/28 01:26:21;;;;;;;14.17;1.70;;;;;;;-144.73;91.66;54461.06;4994103;28;20456;-69
2023/03/28 01:29:12;;;;;;;19.13;2.55;;;;;;;-144.73;91.70;54489.81;4977997;28;20034;-69
2023/03/28 01:32:17;;;;;;;12.93;1.77;;;;;;;-144.73;91.50;54473.38;4978579;28;20030;-70
2023/03/28 01:35:10;;;;;;;13.57;1.57;;;;;;;-144.73;91.62;54438.50;4995797;28;20038;-71
2023/03/28 01:37:46;;;;;;;5.07;1.23;;;;;;;-144.73;91.62;54456.97;4979620;28;20042;-69
2023/03/28 01:40:24;;;;;;;11.10;2.90;;;;;;;-144.73;91.78;54485.69;4993329;28;20109;-70
2023/03/28 01:43:14;;;;;;;13.07;1.43;;;;;;;-144.73;91.50;54465.16;4996104;28;20390;-70
2023/03/28 01:46:00;;;;;;;10.23;1.40;;;;;;;-144.73;91.55;54448.75;4994131;28;20125;-70
2023/03/28 01:48:43;;;;;;;9.33;2.10;;;;;;;-144.73;91.48;54444.66;4980207;28;20057;-70
2023/03/28 01:51:13;;;;;;;4.50;1.17;;;;;;;-144.73;91.68;54485.69;4980373;28;20041;-70
2023/03/28 01:53:45;;;;;;;8.17;1.70;;;;;;;-144.73;91.25;54483.66;4997788;28;20109;-70
2023/03/28 01:56:21;;;;;;;4.07;0.90;;;;;;;-144.73;91.20;54450.81;4980812;28;20046;-69
2023/03/28 01:59:01;;;;;;;6.63;2.10;;;;;;;-144.73;91.02;54502.13;4980852;28;20053;-70
2023/03/28 02:01:35;;;;;;;20.47;1.67;;;;;;;-144.73;91.38;54456.97;4997800;28;20038;-70
2023/03/28 02:04:06;;;;;;;13.07;1.90;;;;;;;-144.73;91.30;54432.31;4980256;28;20030;-69
2023/03/28 02:06:34;;;;;;;5.65;0.88;;;;;;;-144.73;91.40;54436.44;4980256;28;20045;-69
2023/03/28 02:09:03;;;;;;;7.40;1.00;;;;;;;-144.73;90.97;54452.84;4979135;28;20113;-69
2023/03/28 02:11:30;;;;;;;10.80;1.53;;;;;;;-144.73;91.19;54440.53;4979316;28;20039;-71
2023/03/28 02:14:05;;;;;;;2.37;0.93;;;;;;;-144.73;90.99;54510.31;4980006;28;20022;-70
2023/03/28 02:16:35;;;;;;;6.30;1.50;;;;;;;-144.73;90.76;54469.28;4979096;28;20031;-71
2023/03/28 02:19:02;;;;;;;12.73;1.50;;;;;;;-144.73;91.08;54485.69;4978672;28;20026;-71
2023/03/28 02:21:40;;;;;;;6.70;1.00;;;;;;;-144.73;91.15;54454.91;4978768;28;20169;-70
2023/03/28 02:24:06;;;;;;;2.17;0.93;;;;;;;-144.73;90.34;54485.69;4978808;28;20137;-71
2023/03/28 02:26:32;;;;;;;12.97;1.57;;;;;;;-144.73;90.76;54477.47;4978502;28;20034;-71
2023/03/28 02:28:59;;;;;;;12.37;1.37;;;;;;;-144.73;90.50;54461.06;4996042;28;20045;-69
2023/03/28 02:31:24;;;;;;;9.27;1.17;;;;;;;-144.73;90.14;54452.84;4978050;28;20037;-70
2023/03/28 02:33:51;;;;;;;6.40;1.10;;;;;;;-144.73;90.11;54493.91;4978410;28;20018;-70
2023/03/28 02:36:41;;;;;;;4.83;1.23;;;;;;;-144.73;89.91;54481.59;4977538;28;20426;-70
2023/03/28 02:39:09;;;;;;;6.73;1.47;;;;;;;-144.73;90.43;54459.00;4978514;28;20030;-70
2023/03/28 02:42:06;;;;;;;5.53;1.40;;;;;;;-144.73;90.15;54438.50;4995327;28;20030;-70
2023/03/28 02:45:01;;;;;;;3.83;1.10;;;;;;;-144.73;89.91;54430.28;4978106;28;20022;-70
2023/03/28 02:47:33;;;;;;;9.57;1.40;;;;;;;-144.73;90.37;54485.69;4958318;28;20517;-70
2023/03/28 02:50:37;;;;;;;4.93;1.55;;;;;;;-144.73;90.49;54481.59;4974856;28;20026;-70
2023/03/28 02:53:21;;;;;;;8.03;1.40;;;;;;;-144.73;90.95;54498.00;4994797;28;20046;-71
2023/03/28 02:55:59;;;;;;;10.77;1.33;;;;;;;-144.73;90.75;54465.16;4993752;28;20030;-71
2023/03/28 02:58:36;;;;;;;9.87;1.30;;;;;;;-144.73;90.66;54469.28;4994328;28;20027;-70
2023/03/28 03:01:06;;;;;;;8.30;1.77;;;;;;;-144.73;91.44;54506.22;4977546;28;20038;-70
2023/03/28 03:03:36;;;;;;;8.10;1.20;;;;;;;-144.73;91.22;54481.59;4978624;28;20456;-70
2023/03/28 03:06:03;;;;;;;9.90;1.27;;;;;;;-144.73;91.26;54456.97;4977676;28;20122;-70
2023/03/28 03:08:29;;;;;;;9.60;1.30;;;;;;;-144.73;91.25;54452.84;4978864;28;20034;-70
2023/03/28 03:10:55;;;;;;;4.57;1.20;;;;;;;-144.73;91.91;54461.06;4977660;28;20081;-70
2023/03/28 03:13:20;;;;;;;9.70;1.83;;;;;;;-144.73;92.03;54440.53;4978727;28;20062;-70
2023/03/28 03:15:45;;;;;;;8.13;1.13;;;;;;;-144.73;92.22;54448.75;4977718;28;20031;-70
2023/03/28 03:18:15;;;;;;;7.33;1.83;;;;;;;-144.73;91.71;54485.69;4995112;28;20080;-71
2023/03/28 03:20:44;;;;;;;8.83;1.53;;;;;;;-144.73;91.90;54465.16;4977966;28;20035;-70
2023/03/28 03:23:10;;;;;;;11.60;2.00;;;;;;;-144.73;92.06;54448.75;4979158;28;20026;-71
2023/03/28 03:25:36;;;;;;;5.00;1.57;;;;;;;-144.73;91.75;54452.84;4978346;28;20037;-70
2023/03/28 03:28:02;;;;;;;4.13;1.30;;;;;;;-144.73;92.18;54463.13;4995577;28;20038;-71
2023/03/28 03:30:28;;;;;;;6.37;1.00;;;;;;;-144.73;92.29;54432.31;4978053;28;20034;-70
2023/03/28 03:32:54;;;;;;;11.33;1.30;;;;;;;-144.73;90.95;54489.81;4979111;28;20026;-70
2023/03/28 03:35:20;;;;;;;2.53;1.20;;;;;;;-144.73;91.04;54456.97;4981342;28;20036;-70
2023/03/28 03:37:45;;;;;;;6.37;1.10;;;;;;;-144.73;90.82;54473.38;4978394;28;20058;-70
2023/03/28 03:40:11;;;;;;;7.77;1.70;;;;;;;-144.73;91.42;54452.84;4993831;28;20045;-70
2023/03/28 03:42:37;;;;;;;5.90;1.53;;;;;;;-144.73;91.04;54481.59;4996057;28;20033;-68
2023/03/28 03:45:03;;;;;;;7.53;1.60;;;;;;;-144.73;90.73;54456.97;4996066;28;20160;-68
2023/03/28 03:47:28;;;;;;;9.10;2.17;;;;;;;-144.73;90.81;54481.59;4978637;28;20485;-69
2023/03/28 03:49:54;;;;;;;4.87;1.27;;;;;;;-144.73;91.05;54456.97;4993919;28;20026;-69
2023/03/28 03:52:19;;;;;;;6.17;1.37;;;;;;;-144.73;90.80;54465.16;4978171;28;20034;-69
2023/03/28 03:54:45;;;;;;;23.57;1.73;;;;;;;-144.73;90.99;54452.84;4978134;28;20101;-69
2023/03/28 03:57:10;;;;;;;7.17;1.60;;;;;;;-144.73;91.30;54477.47;4995376;28;20042;-69
2023/03/28 03:59:35;;;;;;;4.03;1.70;;;;;;;-144.73;91.26;54473.38;4993735;28;20042;-69
2023/03/28 04:02:01;;;;;;;5.30;1.40;;;;;;;-144.73;90.74;54452.84;4977838;28;20225;-70
2023/03/28 04:04:27;;;;;;;6.77;1.50;;;;;;;-144.73;90.79;54436.44;4977780;28;20042;-69
2023/03/28 04:06:52;;;;;;;6.60;1.60;;;;;;;-144.73;90.68;54428.22;4993341;28;20050;-70
2023/03/28 04:09:21;;;;;;;11.70;1.73;;;;;;;-144.73;90.54;54446.69;4977457;28;20061;-70
2023/03/28 04:11:47;;;;;;;11.67;1.50;;;;;;;-144.73;90.42;54489.81;4994291;28;20042;-70
2023/03/28 04:14:12;;;;;;;7.50;1.27;;;;;;;-144.73;90.88;54485.69;4978425;28;20026;-70
2023/03/28 04:16:37;;;;;;;2.47;0.93;;;;;;;-144.73;90.84;54440.53;4978790;28;20030;-69
2023/03/28 04:19:04;;;;;;;5.03;1.30;;;;;;;-144.73;90.64;54500.06;4995969;28;20033;-69
2023/03/28 04:21:31;;;;;;;9.50;1.60;;;;;;;-144.73;90.55;54473.38;4995034;28;20039;-69
2023/03/28 04:24:00;;;;;;;6.90;1.97;;;;;;;-144.73;91.13;54461.06;4978724;28;20030;-70
2023/03/28 04:26:34;;;;;;;9.63;1.80;;;;;;;-144.73;91.65;54448.75;4958843;28;20062;-70
2023/03/28 04:29:02;;;;;;;5.10;1.90;;;;;;;-144.73;91.50;54459.00;4976198;28;20387;-69
2023/03/28 04:31:29;;;;;;;6.90;1.63;;;;;;;-144.73;91.95;54502.13;4990632;28;20037;-69
2023/03/28 04:33:55;;;;;;;3.47;2.00;;;;;;;-144.73;91.48;54444.66;4978654;28;20042;-69
2023/03/28 04:36:24;;;;;;;3.50;1.77;;;;;;;-144.73;91.79;54452.84;4978132;28;20031;-69
2023/03/28 04:38:50;;;;;;;4.93;1.80;;;;;;;-144.73;92.25;54448.75;4995010;28;20137;-69
2023/03/28 04:41:16;;;;;;;10.17;2.20;;;;;;;-144.73;92.50;54452.84;4978362;28;20113;-69
2023/03/28 04:43:45;;;;;;;4.40;2.03;;;;;;;-144.73;92.11;54452.84;4978138;28;20022;-69
2023/03/28 04:46:10;;;;;;;10.30;1.67;;;;;;;-144.73;91.64;54461.06;4976926;28;20169;-68
2023/03/28 04:48:36;;;;;;;5.53;2.20;;;;;;;-144.73;91.51;54424.13;4978083;28;20062;-69
2023/03/28 04:51:02;;;;;;;5.67;1.67;;;;;;;-144.73;90.59;54469.28;4994188;28;20030;-68
2023/03/28 04:53:27;;;;;;;6.13;2.07;;;;;;;-144.73;90.11;54465.16;4995231;28;20026;-69
2023/03/28 04:55:52;;;;;;;9.20;2.17;;;;;;;-144.73;91.37;54461.06;4976807;28;20524;-68
2023/03/28 04:58:21;;;;;;;9.67;2.27;;;;;;;-144.73;92.57;54452.84;4978054;28;20114;-69
2023/03/28 05:00:49;;;;;;;14.57;2.83;;;;;;;-144.73;93.83;54450.81;4977539;28;20042;-69
2023/03/28 05:03:17;;;;;;;6.83;2.80;;;;;;;-144.73;94.81;54465.16;4978061;28;20037;-68
2023/03/28 05:05:44;;;;;;;9.03;2.80;;;;;;;-144.73;94.73;54475.44;4977036;28;20034;-70
2023/03/28 05:08:11;;;;;;;7.80;2.90;;;;;;;-144.73;94.07;54512.38;4977967;28;20061;-69
2023/03/28 05:10:40;;;;;;;14.50;2.70;;;;;;;-144.73;93.71;54434.38;4976606;28;20042;-73
2023/03/28 05:13:06;;;;;;;9.33;2.60;;;;;;;-144.73;94.68;54452.84;4977951;28;20065;-70
2023/03/28 05:15:32;;;;;;;8.07;2.67;;;;;;;-144.73;94.91;54475.44;4994222;28;20070;-70
2023/03/28 05:17:58;;;;;;;6.80;2.70;;;;;;;-144.73;95.52;54477.47;4977677;28;20029;-71
2023/03/28 05:20:25;;;;;;;11.87;3.27;;;;;;;-144.73;95.59;54493.91;4976999;28;20058;-70
2023/03/28 05:22:50;;;;;;;17.97;3.17;;;;;;;-144.73;95.81;54493.91;4984004;28;20053;-69
2023/03/28 05:25:16;;;;;;;12.93;2.80;;;;;;;-144.73;96.33;54469.28;4976843;28;20026;-69
2023/03/28 05:27:41;;;;;;;10.27;2.87;;;;;;;-144.73;95.61;54477.47;4978160;28;20025;-70
2023/03/28 05:30:09;;;;;;;9.17;2.57;;;;;;;-144.73;95.81;54485.69;4976599;28;20031;-69
2023/03/28 05:32:34;;;;;;;14.27;2.87;;;;;;;-144.73;96.00;54442.59;4978704;28;20034;-71
2023/03/28 05:35:00;;;;;;;12.67;2.43;;;;;;;-144.73;96.25;54477.47;4977169;28;20534;-70
2023/03/28 05:37:25;;;;;;;28.30;2.87;;;;;;;-144.73;95.90;54461.06;4976843;28;20552;-70
2023/03/28 05:39:51;;;;;;;15.07;2.70;;;;;;;-144.73;95.21;54485.69;4976796;28;20019;-70
2023/03/28 05:42:16;;;;;;;16.73;3.80;;;;;;;-144.73;94.57;54491.84;4977073;28;20030;-70
2023/03/28 05:44:42;;;;;;;13.93;3.37;;;;;;;-144.73;94.10;54465.16;4976120;28;20030;-70
2023/03/28 05:47:08;;;;;;;18.60;3.47;;;;;;;-144.73;93.87;54469.28;4975996;28;20041;-70
2023/03/28 05:49:34;;;;;;;9.83;3.90;;;;;;;-144.73;93.69;54510.31;4976347;28;20114;-70
2023/03/28 05:51:59;;;;;;;10.53;2.90;;;;;;;-144.73;93.12;54473.38;4975320;28;20034;-70
2023/03/28 05:54:25;;;;;;;17.50;3.33;;;;;;;-144.73;93.17;54473.38;4975520;28;20117;-70
2023/03/28 05:56:50;;;;;;;12.10;3.37;;;;;;;-144.73;93.54;54444.66;4975289;28;20054;-69
2023/03/28 05:59:17;;;;;;;11.93;3.03;;;;;;;-144.73;94.24;54452.84;4975385;28;20035;-69
2023/03/28 06:01:45;;;;;;;8.97;2.80;;;;;;;-144.73;94.50;54444.66;4975114;28;20133;-70
2023/03/28 06:04:11;;;;;;;12.37;3.10;;;;;;;-144.73;94.86;54432.31;4991814;28;20042;-70
2023/03/28 06:06:37;;;;;;;10.13;3.30;;;;;;;-144.73;94.80;54498.00;4975046;28;20093;-70
2023/03/28 06:09:03;;;;;;;11.83;3.07;;;;;;;-144.73;94.51;54461.06;4975342;28;20033;-71
2023/03/28 06:11:29;;;;;;;8.93;3.50;;;;;;;-144.73;94.42;54502.13;4974916;28;20034;-70
2023/03/28 06:13:54;;;;;;;11.40;3.17;;;;;;;-144.73;94.47;54448.75;4975684;28;20088;-71
2023/03/28 06:16:20;;;;;;;20.40;3.80;;;;;;;-144.73;95.80;54502.13;4974333;28;20105;-69
2023/03/28 06:18:45;;;;;;;17.67;4.17;;;;;;;-144.73;95.80;54514.44;4977402;28;20033;-70
2023/03/28 06:21:10;;;;;;;12.47;3.20;;;;;;;-144.73;94.96;54485.69;4974415;28;20034;-71
2023/03/28 06:23:36;;;;;;;15.30;3.23;;;;;;;-144.73;95.90;54440.53;4988018;28;20397;-70
2023/03/28 06:26:02;;;;;;;19.53;3.47;;;;;;;-144.73;96.42;54475.44;4974478;28;20034;-70
2023/03/28 06:28:27;;;;;;;22.93;3.83;;;;;;;-144.73;96.25;54473.38;4989297;28;20034;-69
2023/03/28 06:30:53;;;;;;;16.80;3.30;;;;;;;-144.73;95.46;54489.81;4972293;28;20493;-68
2023/03/28 06:33:18;;;;;;;16.73;3.30;;;;;;;-144.73;95.69;54489.81;4972526;28;20026;-68
2023/03/28 06:35:43;;;;;;;18.77;3.57;;;;;;;-144.73;95.57;54485.69;4972522;28;20061;-69
2023/03/28 06:38:09;;;;;;;20.53;3.17;;;;;;;-144.73;95.59;54452.84;4979795;28;20018;-70
2023/03/28 06:40:34;;;;;;;14.80;3.40;;;;;;;-144.73;94.87;54448.75;4978596;28;20034;-70
2023/03/28 06:43:00;;;;;;;20.47;2.87;;;;;;;-144.73;94.42;54463.13;4989102;28;20026;-70
2023/03/28 06:45:25;;;;;;;19.07;2.80;;;;;;;-144.73;94.46;54510.31;4977996;28;20046;-69
2023/03/28 06:47:51;;;;;;;18.63;3.58;;;;;;;-144.73;94.46;54481.59;4986701;28;20019;-69
2023/03/28 06:50:17;;;;;;;20.37;3.57;;;;;;;-144.73;94.81;54469.28;4977653;28;20492;-69
2023/03/28 06:52:42;;;;;;;17.77;3.50;;;;;;;-144.73;95.16;54469.28;4964723;28;20038;-68
2023/03/28 06:55:08;;;;;;;23.57;3.33;;;;;;;-144.73;94.68;54489.81;4962510;28;20057;-68
2023/03/28 06:57:34;;;;;;;29.70;3.33;;;;;;;-144.73;94.20;54479.53;4992255;28;20062;-69
2023/03/28 07:00:00;;;;;;;20.47;2.77;;;;;;;-144.73;94.65;54506.22;4976245;28;20026;-69
2023/03/28 07:02:25;;;;;;;28.80;3.67;;;;;;;-144.73;94.45;54448.75;4976118;28;20050;-69
2023/03/28 07:04:50;;;;;;;36.53;4.63;;;;;;;-144.73;94.89;54498.00;4979376;28;20400;-69
2023/03/28 07:07:16;;;;;;;22.17;3.37;;;;;;;-144.73;94.59;54539.06;4973371;28;20057;-69
2023/03/28 07:09:41;;;;;;;18.20;3.13;;;;;;;-144.73;94.16;54487.75;4973774;28;20445;-70
2023/03/28 07:12:07;;;;;;;22.60;3.67;;;;;;;-144.73;93.74;54473.38;4970754;28;20544;-70
2023/03/28 07:14:33;;;;;;;25.98;4.30;;;;;;;-144.73;93.63;54473.38;4977318;28;20041;-69
2023/03/28 07:16:58;;;;;;;19.40;3.97;;;;;;;-144.73;94.05;54454.91;4971684;28;20030;-69
2023/03/28 07:19:23;;;;;;;19.90;4.17;;;;;;;-144.73;93.40;54498.00;4972780;28;20083;-70
2023/03/28 07:21:49;;;;;;;30.48;3.70;;;;;;;-144.73;93.02;54465.16;4971628;28;20034;-69
2023/03/28 07:24:15;;;;;;;24.52;3.88;;;;;;;-144.73;92.97;54481.59;4975001;28;20101;-69
2023/03/28 07:26:40;;;;;;;32.13;4.18;;;;;;;-144.73;92.77;54461.06;4975860;28;20488;-69
2023/03/28 07:29:06;;;;;;;23.17;3.55;;;;;;;-144.73;92.41;54459.00;4976883;28;20476;-69
2023/03/28 07:31:31;;;;;;;21.85;3.33;;;;;;;-144.73;91.49;54465.16;4979773;28;20042;-68
2023/03/28 07:33:57;;;;;;;23.25;3.40;;;;;;;-144.73;90.46;54461.06;4982526;28;20053;-69
2023/03/28 07:36:25;;;;;;;29.50;3.58;;;;;;;-144.73;88.87;54473.38;4973820;28;20043;-69
2023/03/28 07:38:50;;;;;;;23.33;4.55;;;;;;;-144.73;88.51;54498.00;4971180;28;20022;-70
2023/03/28 07:41:17;;;;;;;23.52;2.92;;;;;;;-144.73;86.56;54456.97;4971288;28;20042;-70
2023/03/28 07:43:42;;;;;;;21.88;2.60;;;;;;;-144.73;86.36;54481.59;4973813;28;20014;-70
2023/03/28 07:46:10;;;;;;;20.05;3.67;;;;;;;-144.73;85.80;54452.84;4970370;28;20037;-69
2023/03/28 07:48:36;;;;;;;23.05;3.25;;;;;;;-144.73;85.20;54465.16;4981892;28;20026;-70
2023/03/28 07:51:05;;;;;;;23.83;3.63;;;;;;;-144.73;84.72;54506.22;4970944;28;20096;-69
2023/03/28 07:53:30;;;;;;;20.77;2.83;;;;;;;-144.73;86.35;54432.31;4973374;28;20022;-69
2023/03/28 07:55:56;;;;;;;24.45;2.63;;;;;;;-144.73;84.99;54485.69;4987041;28;20037;-69
2023/03/28 07:58:21;;;;;;;18.33;3.65;;;;;;;-144.73;84.17;54475.44;4971869;28;20033;-69
2023/03/28 08:00:46;;;;;;;17.73;2.47;;;;;;;-144.73;84.24;54440.53;4969343;28;20065;-70
2023/03/28 08:03:12;;;;;;;24.83;3.70;;;;;;;-144.73;83.46;54477.47;4970545;28;20022;-69
2023/03/28 08:05:38;;;;;;;20.13;2.67;;;;;;;-144.73;83.40;54432.31;4970515;28;20034;-70
2023/03/28 08:08:04;;;;;;;11.77;2.28;;;;;;;-144.73;83.21;54461.06;4976688;28;20019;-69
2023/03/28 08:10:30;;;;;;;26.70;3.25;;;;;;;-144.73;82.45;54436.44;4974194;28;20046;-69
2023/03/28 08:12:56;;;;;;;19.33;5.05;;;;;;;-144.73;80.17;54440.53;4978178;28;20085;-70
2023/03/28 08:15:21;;;;;;;13.90;2.35;;;;;;;-144.73;79.79;54436.44;4972160;28;20022;-69
2023/03/28 08:17:47;;;;;;;19.17;2.95;;;;;;;-144.73;81.08;54452.84;4968423;28;20054;-69
2023/03/28 08:20:12;;;;;;;21.33;3.22;;;;;;;-144.73;80.05;54481.59;4971777;28;20026;-69
2023/03/28 08:22:38;;;;;;;21.55;2.70;;;;;;;-144.73;78.28;54432.31;4976167;28;20033;-69
2023/03/28 08:25:04;;;;;;;22.65;2.50;;;;;;;-144.73;78.95;54448.75;4979846;28;20090;-69
2023/03/28 08:27:29;;;;;;;10.98;2.28;;;;;;;-144.73;75.77;54461.06;4974109;28;20046;-69
2023/03/28 08:29:55;;;;;;;22.13;2.78;;;;;;;-144.73;73.33;54436.44;4974792;28;20042;-70
2023/03/28 08:32:20;;;;;;;17.00;2.53;;;;;;;-144.73;73.54;54440.53;4975359;28;20053;-70
2023/03/28 08:34:46;;;;;;;20.13;2.40;;;;;;;-144.73;72.63;54461.06;4974832;28;20096;-70
2023/03/28 08:37:11;;;;;;;13.35;2.10;;;;;;;-144.73;74.74;54452.84;4978909;28;20113;-70
2023/03/28 08:39:39;;;;;;;24.73;3.60;;;;;;;-144.73;75.33;54473.38;4977032;28;20023;-70
2023/03/28 08:42:22;;;;;;;24.52;2.90;;;;;;;-144.73;73.32;54493.91;4977678;28;20030;-69
2023/03/28 08:44:53;;;;;;;26.33;3.38;;;;;;;-144.73;72.22;54436.44;4975284;28;20038;-70
2023/03/28 08:47:28;;;;;;;15.02;2.53;;;;;;;-144.73;70.38;54420.00;4979137;28;20535;-71
2023/03/28 08:50:00;;;;;;;17.73;3.80;;;;;;;-144.73;70.14;54407.69;4975476;28;20029;-70
2023/03/28 08:52:27;;;;;;;13.15;1.73;;;;;;;-144.73;69.42;54477.47;4980804;28;20034;-70
2023/03/28 08:55:05;;;;;;;17.95;2.33;;;;;;;-144.73;69.61;54448.75;4974481;28;20045;-70
2023/03/28 08:57:33;;;;;;;11.20;2.25;;;;;;;-144.73;70.67;54432.31;4994885;28;20085;-70
2023/03/28 09:00:13;;;;;;;17.73;2.28;;;;;;;-144.73;70.88;54456.97;4970526;28;20015;-70
2023/03/28 09:02:39;;;;;;;13.02;2.22;;;;;;;-144.73;71.15;54491.84;4975398;28;20045;-71
2023/03/28 09:05:09;;;;;;;21.20;2.75;;;;;;;-144.73;70.09;54461.06;4984791;28;20468;-69
2023/03/28 09:07:38;;;;;;;18.35;2.33;;;;;;;-144.73;69.70;54395.38;4970107;28;20045;-69
2023/03/28 09:10:19;;;;;;;17.55;2.70;;;;;;;-144.73;68.89;54440.53;4970113;28;20037;-70
2023/03/28 09:13:01;;;;;;;9.27;2.00;;;;;;;-144.73;68.05;54428.22;4986106;28;20045;-70
2023/03/28 09:15:40;;;;;;;12.15;1.98;;;;;;;-144.73;66.94;54391.28;4971761;28;20283;-70
2023/03/28 09:18:29;;;;;;;21.35;2.20;;;;;;;-144.73;65.03;54420.00;4974012;28;20080;-70
2023/03/28 09:21:12;;;;;;;10.88;1.77;;;;;;;-144.73;66.09;54407.69;4994487;28;20049;-70
2023/03/28 09:24:00;;;;;;;21.23;2.88;;;;;;;-144.73;64.29;54477.47;4991087;28;20030;-70
2023/03/28 09:26:39;;;;;;;17.20;2.85;;;;;;;-144.73;63.15;54477.47;4992763;28;20045;-70
2023/03/28 09:29:13;;;;;;;16.10;2.40;;;;;;;-144.73;64.28;54473.38;4975544;28;20026;-70
2023/03/28 09:31:44;;;;;;;10.95;2.08;;;;;;;-144.73;64.05;54459.00;4982746;28;20049;-69
2023/03/28 09:34:19;;;;;;;15.02;1.95;;;;;;;-144.73;64.00;54456.97;4977049;28;20027;-69
2023/03/28 09:36:44;;;;;;;26.60;2.65;;;;;;;-144.73;65.93;54493.91;4970430;28;20038;-69
2023/03/28 09:39:37;;;;;;;12.55;2.97;;;;;;;-144.73;70.70;54469.28;4977198;28;20110;-69
2023/03/28 09:42:24;;;;;;;12.35;2.33;;;;;;;-144.73;72.40;54495.97;4983648;28;20440;-70
2023/03/28 09:45:36;;;;;;;14.82;3.53;;;;;;;-144.73;71.88;54461.06;4978863;28;20030;-69
2023/03/28 09:48:13;;;;;;;20.15;2.35;;;;;;;-144.73;73.02;54446.69;4982248;28;20039;-69
2023/03/28 09:50:39;;;;;;;18.08;2.88;;;;;;;-144.73;72.14;54456.97;4971429;28;20038;-69
2023/03/28 09:53:04;;;;;;;15.63;2.75;;;;;;;-144.73;70.61;54444.66;4980148;28;20125;-69
2023/03/28 09:55:30;;;;;;;13.52;2.33;;;;;;;-144.73;69.45;54395.38;4974638;28;20046;-69
2023/03/28 09:58:03;;;;;;;16.73;2.13;;;;;;;-144.73;67.27;54493.91;4989640;28;20014;-70
2023/03/28 10:00:34;;;;;;;13.18;2.60;;;;;;;-144.73;68.49;54452.84;4971132;28;20043;-70
2023/03/28 10:02:59;;;;;;;14.93;2.50;;;;;;;-144.73;65.78;54452.84;4972480;28;20030;-70
2023/03/28 10:05:37;;;;;;;17.30;3.15;;;;;;;-144.73;65.53;54444.66;4973110;28;20092;-70
2023/03/28 10:08:33;;;;;;;22.08;3.20;;;;;;;-144.73;67.55;54452.84;4982291;28;20034;-69
2023/03/28 10:11:12;;;;;;;18.15;2.47;;;;;;;-144.73;66.70;54461.06;4996813;28;20038;-69
2023/03/28 10:13:49;;;;;;;35.42;3.25;;;;;;;-144.73;66.66;54465.16;4982330;28;20124;-69
2023/03/28 10:16:24;;;;;;;36.17;2.85;;;;;;;-144.73;65.77;54444.66;4984060;28;20037;-70
2023/03/28 10:18:50;;;;;;;22.27;2.92;;;;;;;-144.73;67.28;54444.66;4973330;28;20098;-69
2023/03/28 10:21:19;;;;;;;30.30;4.50;;;;;;;-144.73;67.83;54493.91;4973896;28;20075;-69
2023/03/28 10:24:02;;;;;;;16.35;4.15;;;;;;;-144.73;67.82;54514.44;4974625;28;20014;-69
2023/03/28 10:26:28;;;;;;;15.23;2.53;;;;;;;-144.73;65.54;54461.06;4973251;28;20031;-69
2023/03/28 10:28:59;;;;;;;15.60;3.47;;;;;;;-144.73;64.51;54434.38;4973236;28;20041;-69
2023/03/28 10:31:30;;;;;;;20.50;2.57;;;;;;;-144.73;66.58;54475.44;4991625;28;20031;-70
2023/03/28 10:34:01;;;;;;;13.35;2.20;;;;;;;-144.73;68.11;54456.97;4973045;28;20050;-70
2023/03/28 10:36:43;;;;;;;14.67;2.33;;;;;;;-144.73;68.16;54481.59;4973858;28;20039;-70
2023/03/28 10:39:20;;;;;;;;;;;;;;;-144.73;69.77;54454.91;4968569;28;20065;-70
2023/03/28 10:41:57;;;;;;;14.95;2.17;;;;;;;-144.73;71.19;54450.81;4973394;28;19987;-70
2023/03/28 10:44:36;;;;;;;16.95;2.10;;;;;;;-144.73;74.50;54444.66;4990181;28;20375;-70
2023/03/28 10:47:06;;;;;;;20.45;2.22;;;;;;;-144.73;76.42;54469.28;4973535;28;20162;-70
2023/03/28 10:49:53;;;;;;;11.50;1.98;;;;;;;-144.73;75.70;54481.59;4990870;28;20122;-69
2023/03/28 10:52:49;;;;;;;17.98;2.40;;;;;;;-144.73;74.72;54473.38;4974291;28;20054;-69
2023/03/28 10:55:19;;;;;;;27.33;2.90;;;;;;;-144.73;74.07;54420.00;4957404;28;20065;-69
2023/03/28 10:57:54;;;;;;;45.42;5.22;;;;;;;-144.73;72.67;54473.38;4981489;28;20025;-69
2023/03/28 11:00:39;;;;;;;73.85;5.00;;;;;;;-144.73;69.94;54477.47;4980702;28;20563;-70
2023/03/28 11:03:14;;;;;;;14.13;2.30;;;;;;;-144.73;68.69;54481.59;4982823;28;20034;-69
2023/03/28 11:05:48;;;;;;;12.43;2.08;;;;;;;-144.73;68.99;54428.22;4980356;28;20034;-69
2023/03/28 11:08:53;;;;;;;12.38;2.35;;;;;;;-144.73;68.25;54411.81;4972929;28;20088;-68
2023/03/28 11:11:31;;;;;;;12.57;2.00;;;;;;;-144.73;68.06;54452.84;4948995;28;20044;-70
2023/03/28 11:14:02;;;;;;;12.48;2.40;;;;;;;-144.73;66.38;54473.38;4989069;28;20030;-69
2023/03/28 11:16:45;;;;;;;8.82;1.98;;;;;;;-144.73;65.80;54485.69;4972711;28;20076;-70
2023/03/28 11:20:00;;;;;;;19.95;1.90;;;;;;;-144.73;66.66;54448.75;4986815;28;20115;-70
2023/03/28 11:22:43;;;;;;;24.38;2.53;;;;;;;-144.73;64.75;54446.69;4960246;28;20049;-71
2023/03/28 11:25:43;;;;;;;17.52;1.70;;;;;;;-144.73;61.72;54461.06;4968202;28;20022;-70
2023/03/28 11:28:17;;;;;;;14.55;2.30;;;;;;;-144.73;62.21;54448.75;4984740;28;20196;-70